Portada
METAR-TAF:

METAR-TAF

Aeropuertos :

Pohang, Corea del Sur

latitud: 35-59N, longitud: 129-25E, altitud: 20 m

Observación

El informe se hizo hace 29 minutos, a las 01:00 UTC
Viento 13 kt del oeste
Temperatura 4°C
Humedad 32%
Presión 1029 hPa
Visibilidad 10 km o más
sin nubes por debajo de 1500 m y sin presencia de cumulonimbus.

METAR: RKTH 190100Z 27013KT CAVOK 04/M11 Q1029 RMK SLP295 8/008 9/003

Hora: 10:29 (01:29 UTC)

Pronóstico

El informe se hizo hace 8 horas y 29 minutos, a las 17:00 UTC
Pronóstico válido del 18 a las 18 UTC al 19 a las 24 UTC
Viento 6 kt del oeste
Visibilidad 10 km o más
Nubes dispersas a una altura de 3000 ft
Nubes dispersas a una altura de 20000 ft
Evolucionando progresivamente
del 18 a las 23 UTC al 18 a las 24 UTC
Viento 10 kt del oeste

TAF: RKTH 181700Z 1818/1924 27006KT 9999 SCT030 SCT200 TN01/1821Z TX12/1906Z BECMG 1823/1824 27010KT

Observaciones y pronósticos meteorológicos de más de 4000 aeropuertos (mensajes METAR y TAF).

Los puntos amarillos y rojos representan las estaciones disponibles.

Ponga el ratón en el punto deseado para ver el nombre de la estación.

Haga clic para ver las observaciones y los pronósticos meteorológicos.

Para cambiar el mapa : haga clic en los botones verdes con una cruz de color negro para hacer un zoom, en el botón verde con un guión para alejar o en las flechas verdes para mapas adyacentes.


METAR-TAF: